sensor_id;sensor_type;location;lat;lon;timestamp;P1;durP1;ratioP1;P2;durP2;ratioP2
63346;SDS011;49472;49.880;8.650;2023-04-15T00:00:29;13.10;;;11.90;;
63346;SDS011;49472;49.880;8.650;2023-04-15T00:02:55;13.03;;;11.90;;
63346;SDS011;49472;49.880;8.650;2023-04-15T00:05:20;14.83;;;12.53;;
63346;SDS011;49472;49.880;8.650;2023-04-15T00:07:46;19.53;;;13.50;;
63346;SDS011;49472;49.880;8.650;2023-04-15T00:10:12;13.73;;;12.63;;
63346;SDS011;49472;49.880;8.650;2023-04-15T00:12:38;12.97;;;12.00;;
63346;SDS011;49472;49.880;8.650;2023-04-15T00:15:05;13.60;;;12.50;;
63346;SDS011;49472;49.880;8.650;2023-04-15T00:17:32;12.73;;;11.63;;
63346;SDS011;49472;49.880;8.650;2023-04-15T00:19:58;13.57;;;12.30;;
63346;SDS011;49472;49.880;8.650;2023-04-15T00:22:24;13.60;;;12.20;;
63346;SDS011;49472;49.880;8.650;2023-04-15T00:24:50;13.83;;;12.00;;
63346;SDS011;49472;49.880;8.650;2023-04-15T00:27:16;13.87;;;12.77;;
63346;SDS011;49472;49.880;8.650;2023-04-15T00:29:41;14.27;;;11.90;;
63346;SDS011;49472;49.880;8.650;2023-04-15T00:32:07;14.63;;;11.73;;
63346;SDS011;49472;49.880;8.650;2023-04-15T00:34:33;12.93;;;11.83;;
63346;SDS011;49472;49.880;8.650;2023-04-15T00:36:58;12.10;;;11.20;;
63346;SDS011;49472;49.880;8.650;2023-04-15T00:39:23;12.30;;;11.13;;
63346;SDS011;49472;49.880;8.650;2023-04-15T00:41:49;13.20;;;12.20;;
63346;SDS011;49472;49.880;8.650;2023-04-15T00:44:14;13.97;;;12.40;;
63346;SDS011;49472;49.880;8.650;2023-04-15T00:46:39;14.37;;;13.10;;
63346;SDS011;49472;49.880;8.650;2023-04-15T00:49:07;14.23;;;13.13;;
63346;SDS011;49472;49.880;8.650;2023-04-15T00:51:32;13.30;;;11.93;;
63346;SDS011;49472;49.880;8.650;2023-04-15T00:54:00;13.00;;;12.00;;
63346;SDS011;49472;49.880;8.650;2023-04-15T00:56:29;12.80;;;11.50;;
63346;SDS011;49472;49.880;8.650;2023-04-15T00:58:56;12.77;;;11.83;;
63346;SDS011;49472;49.880;8.650;2023-04-15T01:01:23;13.23;;;11.63;;
63346;SDS011;49472;49.880;8.650;2023-04-15T01:03:50;13.23;;;12.33;;
63346;SDS011;49472;49.880;8.650;2023-04-15T01:06:16;12.97;;;11.97;;
63346;SDS011;49472;49.880;8.650;2023-04-15T01:08:42;15.60;;;13.93;;
63346;SDS011;49472;49.880;8.650;2023-04-15T01:11:08;18.60;;;13.70;;
63346;SDS011;49472;49.880;8.650;2023-04-15T01:13:34;14.67;;;13.17;;
63346;SDS011;49472;49.880;8.650;2023-04-15T01:16:00;15.87;;;12.60;;
63346;SDS011;49472;49.880;8.650;2023-04-15T01:18:27;13.63;;;12.53;;
63346;SDS011;49472;49.880;8.650;2023-04-15T01:20:53;13.40;;;12.13;;
63346;SDS011;49472;49.880;8.650;2023-04-15T01:23:18;12.87;;;11.93;;
63346;SDS011;49472;49.880;8.650;2023-04-15T01:25:46;15.93;;;12.53;;
63346;SDS011;49472;49.880;8.650;2023-04-15T01:28:13;12.93;;;11.20;;
63346;SDS011;49472;49.880;8.650;2023-04-15T01:30:38;14.50;;;13.00;;
63346;SDS011;49472;49.880;8.650;2023-04-15T01:33:04;12.90;;;11.90;;
63346;SDS011;49472;49.880;8.650;2023-04-15T01:35:29;13.83;;;12.43;;
63346;SDS011;49472;49.880;8.650;2023-04-15T01:37:54;13.50;;;12.40;;
63346;SDS011;49472;49.880;8.650;2023-04-15T01:40:28;13.83;;;12.60;;
63346;SDS011;49472;49.880;8.650;2023-04-15T01:42:54;14.93;;;12.90;;
63346;SDS011;49472;49.880;8.650;2023-04-15T01:45:20;13.00;;;11.80;;
63346;SDS011;49472;49.880;8.650;2023-04-15T01:47:45;14.13;;;12.83;;
63346;SDS011;49472;49.880;8.650;2023-04-15T01:50:10;14.53;;;13.20;;
63346;SDS011;49472;49.880;8.650;2023-04-15T01:52:36;13.93;;;12.63;;
63346;SDS011;49472;49.880;8.650;2023-04-15T01:55:01;15.80;;;13.03;;
63346;SDS011;49472;49.880;8.650;2023-04-15T01:57:26;12.80;;;11.80;;
63346;SDS011;49472;49.880;8.650;2023-04-15T01:59:52;13.50;;;12.50;;
63346;SDS011;49472;49.880;8.650;2023-04-15T02:02:17;14.57;;;13.00;;
63346;SDS011;49472;49.880;8.650;2023-04-15T02:04:42;12.90;;;11.83;;
63346;SDS011;49472;49.880;8.650;2023-04-15T02:07:08;13.43;;;12.30;;
63346;SDS011;49472;49.880;8.650;2023-04-15T02:09:33;12.53;;;11.50;;
63346;SDS011;49472;49.880;8.650;2023-04-15T02:11:59;12.73;;;11.63;;
63346;SDS011;49472;49.880;8.650;2023-04-15T02:14:24;13.30;;;12.20;;
63346;SDS011;49472;49.880;8.650;2023-04-15T02:16:50;12.50;;;11.70;;
63346;SDS011;49472;49.880;8.650;2023-04-15T02:19:15;14.60;;;13.20;;
63346;SDS011;49472;49.880;8.650;2023-04-15T02:21:40;13.00;;;11.90;;
63346;SDS011;49472;49.880;8.650;2023-04-15T02:24:06;13.40;;;12.40;;
63346;SDS011;49472;49.880;8.650;2023-04-15T02:26:31;13.10;;;12.10;;
63346;SDS011;49472;49.880;8.650;2023-04-15T02:28:57;13.97;;;12.43;;
63346;SDS011;49472;49.880;8.650;2023-04-15T02:31:23;13.17;;;12.10;;
63346;SDS011;49472;49.880;8.650;2023-04-15T02:33:49;13.63;;;12.23;;
63346;SDS011;49472;49.880;8.650;2023-04-15T02:36:15;13.50;;;12.40;;
63346;SDS011;49472;49.880;8.650;2023-04-15T02:38:40;13.37;;;12.13;;
63346;SDS011;49472;49.880;8.650;2023-04-15T02:41:07;13.53;;;12.50;;
63346;SDS011;49472;49.880;8.650;2023-04-15T02:43:33;15.93;;;12.73;;
63346;SDS011;49472;49.880;8.650;2023-04-15T02:45:59;13.70;;;12.60;;
63346;SDS011;49472;49.880;8.650;2023-04-15T02:48:24;13.70;;;12.60;;
63346;SDS011;49472;49.880;8.650;2023-04-15T02:50:50;14.87;;;13.37;;
63346;SDS011;49472;49.880;8.650;2023-04-15T02:53:15;17.03;;;14.87;;
63346;SDS011;49472;49.880;8.650;2023-04-15T02:55:41;15.33;;;13.53;;
63346;SDS011;49472;49.880;8.650;2023-04-15T02:58:06;14.70;;;12.93;;
63346;SDS011;49472;49.880;8.650;2023-04-15T03:00:32;15.53;;;13.80;;
63346;SDS011;49472;49.880;8.650;2023-04-15T03:02:58;14.87;;;13.40;;
63346;SDS011;49472;49.880;8.650;2023-04-15T03:05:27;16.70;;;14.07;;
63346;SDS011;49472;49.880;8.650;2023-04-15T03:07:52;15.77;;;13.27;;
63346;SDS011;49472;49.880;8.650;2023-04-15T03:10:18;16.43;;;13.20;;
63346;SDS011;49472;49.880;8.650;2023-04-15T03:12:44;14.77;;;13.37;;
63346;SDS011;49472;49.880;8.650;2023-04-15T03:15:09;14.70;;;13.43;;
63346;SDS011;49472;49.880;8.650;2023-04-15T03:17:35;14.30;;;13.03;;
63346;SDS011;49472;49.880;8.650;2023-04-15T03:20:01;14.73;;;13.40;;
63346;SDS011;49472;49.880;8.650;2023-04-15T03:22:27;13.50;;;12.53;;
63346;SDS011;49472;49.880;8.650;2023-04-15T03:24:53;14.73;;;13.43;;
63346;SDS011;49472;49.880;8.650;2023-04-15T03:27:18;14.87;;;13.53;;
63346;SDS011;49472;49.880;8.650;2023-04-15T03:29:43;14.07;;;12.97;;
63346;SDS011;49472;49.880;8.650;2023-04-15T03:32:08;14.93;;;13.53;;
63346;SDS011;49472;49.880;8.650;2023-04-15T03:34:34;16.53;;;14.80;;
63346;SDS011;49472;49.880;8.650;2023-04-15T03:37:00;15.20;;;13.17;;
63346;SDS011;49472;49.880;8.650;2023-04-15T03:39:25;17.03;;;13.83;;
63346;SDS011;49472;49.880;8.650;2023-04-15T03:41:51;17.27;;;15.33;;
63346;SDS011;49472;49.880;8.650;2023-04-15T03:44:16;15.73;;;14.20;;
63346;SDS011;49472;49.880;8.650;2023-04-15T03:46:41;14.60;;;13.20;;
63346;SDS011;49472;49.880;8.650;2023-04-15T03:49:06;17.00;;;14.07;;
63346;SDS011;49472;49.880;8.650;2023-04-15T03:51:32;14.30;;;13.00;;
63346;SDS011;49472;49.880;8.650;2023-04-15T03:53:58;14.87;;;13.47;;
63346;SDS011;49472;49.880;8.650;2023-04-15T03:56:23;15.47;;;13.90;;
63346;SDS011;49472;49.880;8.650;2023-04-15T03:58:49;15.00;;;13.40;;
63346;SDS011;49472;49.880;8.650;2023-04-15T04:01:14;14.30;;;13.30;;
63346;SDS011;49472;49.880;8.650;2023-04-15T04:03:40;16.57;;;13.83;;
63346;SDS011;49472;49.880;8.650;2023-04-15T04:06:05;14.53;;;13.53;;
63346;SDS011;49472;49.880;8.650;2023-04-15T04:08:31;14.50;;;13.40;;
63346;SDS011;49472;49.880;8.650;2023-04-15T04:10:58;16.00;;;14.50;;
63346;SDS011;49472;49.880;8.650;2023-04-15T04:13:23;17.50;;;14.73;;
63346;SDS011;49472;49.880;8.650;2023-04-15T04:15:49;15.63;;;14.10;;
63346;SDS011;49472;49.880;8.650;2023-04-15T04:18:14;19.10;;;14.57;;
63346;SDS011;49472;49.880;8.650;2023-04-15T04:20:40;14.27;;;13.17;;
63346;SDS011;49472;49.880;8.650;2023-04-15T04:23:05;14.97;;;13.77;;
63346;SDS011;49472;49.880;8.650;2023-04-15T04:25:31;17.53;;;14.27;;
63346;SDS011;49472;49.880;8.650;2023-04-15T04:27:57;14.73;;;13.53;;
63346;SDS011;49472;49.880;8.650;2023-04-15T04:30:22;16.50;;;14.97;;
63346;SDS011;49472;49.880;8.650;2023-04-15T04:32:48;13.80;;;12.80;;
63346;SDS011;49472;49.880;8.650;2023-04-15T04:35:14;14.00;;;12.80;;
63346;SDS011;49472;49.880;8.650;2023-04-15T04:37:40;18.90;;;13.30;;
63346;SDS011;49472;49.880;8.650;2023-04-15T04:40:05;15.30;;;14.00;;
63346;SDS011;49472;49.880;8.650;2023-04-15T04:42:32;23.73;;;13.03;;
63346;SDS011;49472;49.880;8.650;2023-04-15T04:44:57;15.33;;;13.90;;
63346;SDS011;49472;49.880;8.650;2023-04-15T04:47:22;15.07;;;13.97;;
63346;SDS011;49472;49.880;8.650;2023-04-15T04:49:48;14.40;;;13.10;;
63346;SDS011;49472;49.880;8.650;2023-04-15T04:52:13;15.47;;;14.17;;
63346;SDS011;49472;49.880;8.650;2023-04-15T04:54:38;14.93;;;13.60;;
63346;SDS011;49472;49.880;8.650;2023-04-15T04:57:04;16.37;;;14.67;;
63346;SDS011;49472;49.880;8.650;2023-04-15T04:59:29;15.27;;;13.90;;
63346;SDS011;49472;49.880;8.650;2023-04-15T05:01:54;15.87;;;14.30;;
63346;SDS011;49472;49.880;8.650;2023-04-15T05:04:20;16.17;;;14.37;;
63346;SDS011;49472;49.880;8.650;2023-04-15T05:06:45;16.33;;;14.70;;
63346;SDS011;49472;49.880;8.650;2023-04-15T05:09:11;15.80;;;14.23;;
63346;SDS011;49472;49.880;8.650;2023-04-15T05:11:36;15.80;;;14.40;;
63346;SDS011;49472;49.880;8.650;2023-04-15T05:14:01;15.97;;;14.27;;
63346;SDS011;49472;49.880;8.650;2023-04-15T05:16:27;19.30;;;14.00;;
63346;SDS011;49472;49.880;8.650;2023-04-15T05:18:52;15.00;;;13.80;;
63346;SDS011;49472;49.880;8.650;2023-04-15T05:21:18;23.73;;;14.10;;
63346;SDS011;49472;49.880;8.650;2023-04-15T05:23:43;15.10;;;13.70;;
63346;SDS011;49472;49.880;8.650;2023-04-15T05:26:08;14.83;;;13.73;;
63346;SDS011;49472;49.880;8.650;2023-04-15T05:28:34;15.67;;;14.00;;
63346;SDS011;49472;49.880;8.650;2023-04-15T05:30:59;14.93;;;13.57;;
63346;SDS011;49472;49.880;8.650;2023-04-15T05:33:25;14.93;;;13.73;;
63346;SDS011;49472;49.880;8.650;2023-04-15T05:35:51;17.47;;;15.60;;
63346;SDS011;49472;49.880;8.650;2023-04-15T05:38:16;16.30;;;14.33;;
63346;SDS011;49472;49.880;8.650;2023-04-15T05:40:42;18.40;;;14.83;;
63346;SDS011;49472;49.880;8.650;2023-04-15T05:43:07;15.77;;;14.10;;
63346;SDS011;49472;49.880;8.650;2023-04-15T05:45:32;30.33;;;14.90;;
63346;SDS011;49472;49.880;8.650;2023-04-15T05:47:58;25.10;;;15.07;;
63346;SDS011;49472;49.880;8.650;2023-04-15T05:50:23;28.60;;;16.90;;
63346;SDS011;49472;49.880;8.650;2023-04-15T05:52:48;16.83;;;15.23;;
63346;SDS011;49472;49.880;8.650;2023-04-15T05:55:13;16.63;;;15.00;;
63346;SDS011;49472;49.880;8.650;2023-04-15T05:57:39;15.60;;;14.30;;
63346;SDS011;49472;49.880;8.650;2023-04-15T06:00:04;15.00;;;13.70;;
63346;SDS011;49472;49.880;8.650;2023-04-15T06:02:30;18.70;;;14.10;;
63346;SDS011;49472;49.880;8.650;2023-04-15T06:04:56;15.07;;;14.03;;
63346;SDS011;49472;49.880;8.650;2023-04-15T06:07:21;14.50;;;13.50;;
63346;SDS011;49472;49.880;8.650;2023-04-15T06:09:47;18.13;;;16.27;;
63346;SDS011;49472;49.880;8.650;2023-04-15T06:12:13;15.03;;;13.67;;
63346;SDS011;49472;49.880;8.650;2023-04-15T06:14:38;15.07;;;13.57;;
63346;SDS011;49472;49.880;8.650;2023-04-15T06:17:04;16.83;;;15.53;;
63346;SDS011;49472;49.880;8.650;2023-04-15T06:19:30;16.67;;;14.90;;
63346;SDS011;49472;49.880;8.650;2023-04-15T06:21:56;16.80;;;15.30;;
63346;SDS011;49472;49.880;8.650;2023-04-15T06:24:22;15.37;;;14.33;;
63346;SDS011;49472;49.880;8.650;2023-04-15T06:26:47;20.20;;;15.77;;
63346;SDS011;49472;49.880;8.650;2023-04-15T06:29:13;18.23;;;16.23;;
63346;SDS011;49472;49.880;8.650;2023-04-15T06:31:38;17.93;;;16.07;;
63346;SDS011;49472;49.880;8.650;2023-04-15T06:34:03;18.67;;;16.23;;
63346;SDS011;49472;49.880;8.650;2023-04-15T06:36:29;18.07;;;16.20;;
63346;SDS011;49472;49.880;8.650;2023-04-15T06:38:54;21.90;;;17.13;;
63346;SDS011;49472;49.880;8.650;2023-04-15T06:41:21;20.63;;;16.63;;
63346;SDS011;49472;49.880;8.650;2023-04-15T06:43:46;22.67;;;16.23;;
63346;SDS011;49472;49.880;8.650;2023-04-15T06:46:12;19.43;;;15.20;;
63346;SDS011;49472;49.880;8.650;2023-04-15T06:48:37;25.13;;;16.80;;
63346;SDS011;49472;49.880;8.650;2023-04-15T06:51:03;16.40;;;14.90;;
63346;SDS011;49472;49.880;8.650;2023-04-15T06:53:28;16.87;;;15.40;;
63346;SDS011;49472;49.880;8.650;2023-04-15T06:55:53;16.50;;;14.83;;
63346;SDS011;49472;49.880;8.650;2023-04-15T06:58:20;23.43;;;16.30;;
63346;SDS011;49472;49.880;8.650;2023-04-15T07:00:46;17.10;;;15.80;;
63346;SDS011;49472;49.880;8.650;2023-04-15T07:03:11;16.27;;;15.07;;
63346;SDS011;49472;49.880;8.650;2023-04-15T07:05:37;16.83;;;15.20;;
63346;SDS011;49472;49.880;8.650;2023-04-15T07:08:03;17.47;;;16.07;;
63346;SDS011;49472;49.880;8.650;2023-04-15T07:10:29;18.00;;;16.20;;
63346;SDS011;49472;49.880;8.650;2023-04-15T07:12:55;18.30;;;16.40;;
63346;SDS011;49472;49.880;8.650;2023-04-15T07:15:20;18.40;;;16.53;;
63346;SDS011;49472;49.880;8.650;2023-04-15T07:17:46;16.87;;;15.17;;
63346;SDS011;49472;49.880;8.650;2023-04-15T07:20:11;17.70;;;15.90;;
63346;SDS011;49472;49.880;8.650;2023-04-15T07:22:37;18.23;;;16.70;;
63346;SDS011;49472;49.880;8.650;2023-04-15T07:25:03;19.77;;;17.30;;
63346;SDS011;49472;49.880;8.650;2023-04-15T07:27:29;19.30;;;16.63;;
63346;SDS011;49472;49.880;8.650;2023-04-15T07:29:55;21.03;;;17.00;;
63346;SDS011;49472;49.880;8.650;2023-04-15T07:32:20;18.97;;;17.17;;
63346;SDS011;49472;49.880;8.650;2023-04-15T07:34:45;19.57;;;17.93;;
63346;SDS011;49472;49.880;8.650;2023-04-15T07:37:11;19.87;;;18.03;;
63346;SDS011;49472;49.880;8.650;2023-04-15T07:39:36;20.93;;;17.50;;
63346;SDS011;49472;49.880;8.650;2023-04-15T07:42:02;20.00;;;18.10;;
63346;SDS011;49472;49.880;8.650;2023-04-15T07:44:28;18.87;;;17.33;;
63346;SDS011;49472;49.880;8.650;2023-04-15T07:46:54;19.00;;;17.07;;
63346;SDS011;49472;49.880;8.650;2023-04-15T07:49:20;21.80;;;18.70;;
63346;SDS011;49472;49.880;8.650;2023-04-15T07:51:45;19.67;;;17.77;;
63346;SDS011;49472;49.880;8.650;2023-04-15T07:54:11;20.50;;;17.77;;
63346;SDS011;49472;49.880;8.650;2023-04-15T07:56:36;20.13;;;18.03;;
63346;SDS011;49472;49.880;8.650;2023-04-15T07:59:01;21.30;;;19.10;;
63346;SDS011;49472;49.880;8.650;2023-04-15T08:01:28;20.57;;;16.90;;
63346;SDS011;49472;49.880;8.650;2023-04-15T08:03:54;18.77;;;17.00;;
63346;SDS011;49472;49.880;8.650;2023-04-15T08:06:20;20.93;;;18.80;;
63346;SDS011;49472;49.880;8.650;2023-04-15T08:08:45;20.33;;;18.20;;
63346;SDS011;49472;49.880;8.650;2023-04-15T08:11:11;20.30;;;18.17;;
63346;SDS011;49472;49.880;8.650;2023-04-15T08:13:37;20.70;;;18.70;;
63346;SDS011;49472;49.880;8.650;2023-04-15T08:18:43;19.33;;;17.43;;
63346;SDS011;49472;49.880;8.650;2023-04-15T08:21:09;18.17;;;16.67;;
63346;SDS011;49472;49.880;8.650;2023-04-15T08:23:34;19.27;;;17.67;;
63346;SDS011;49472;49.880;8.650;2023-04-15T08:26:00;20.73;;;18.73;;
63346;SDS011;49472;49.880;8.650;2023-04-15T08:28:25;19.63;;;17.93;;
63346;SDS011;49472;49.880;8.650;2023-04-15T08:30:54;21.20;;;19.00;;
63346;SDS011;49472;49.880;8.650;2023-04-15T08:33:19;18.83;;;17.23;;
63346;SDS011;49472;49.880;8.650;2023-04-15T08:35:45;21.07;;;18.93;;
63346;SDS011;49472;49.880;8.650;2023-04-15T08:38:11;19.83;;;17.90;;
63346;SDS011;49472;49.880;8.650;2023-04-15T08:40:43;18.63;;;16.80;;
63346;SDS011;49472;49.880;8.650;2023-04-15T08:43:11;20.50;;;18.50;;
63346;SDS011;49472;49.880;8.650;2023-04-15T08:45:42;18.60;;;16.90;;
63346;SDS011;49472;49.880;8.650;2023-04-15T08:48:10;18.97;;;16.00;;
63346;SDS011;49472;49.880;8.650;2023-04-15T08:50:41;18.60;;;17.00;;
63346;SDS011;49472;49.880;8.650;2023-04-15T08:53:06;17.07;;;15.50;;
63346;SDS011;49472;49.880;8.650;2023-04-15T08:55:32;17.53;;;16.13;;
63346;SDS011;49472;49.880;8.650;2023-04-15T08:58:01;16.20;;;15.00;;
63346;SDS011;49472;49.880;8.650;2023-04-15T09:00:30;16.17;;;14.97;;
63346;SDS011;49472;49.880;8.650;2023-04-15T09:02:56;15.03;;;13.83;;
63346;SDS011;49472;49.880;8.650;2023-04-15T09:05:23;15.03;;;13.93;;
63346;SDS011;49472;49.880;8.650;2023-04-15T09:07:51;14.73;;;13.63;;
63346;SDS011;49472;49.880;8.650;2023-04-15T09:10:16;15.30;;;13.93;;
63346;SDS011;49472;49.880;8.650;2023-04-15T09:12:42;15.00;;;13.70;;
63346;SDS011;49472;49.880;8.650;2023-04-15T09:15:10;16.23;;;14.83;;
63346;SDS011;49472;49.880;8.650;2023-04-15T09:17:36;14.47;;;13.57;;
63346;SDS011;49472;49.880;8.650;2023-04-15T09:20:10;15.13;;;13.63;;
63346;SDS011;49472;49.880;8.650;2023-04-15T09:22:37;14.67;;;13.30;;
63346;SDS011;49472;49.880;8.650;2023-04-15T09:27:51;14.90;;;13.53;;
63346;SDS011;49472;49.880;8.650;2023-04-15T09:30:18;13.10;;;12.20;;
63346;SDS011;49472;49.880;8.650;2023-04-15T09:32:50;12.73;;;11.73;;
63346;SDS011;49472;49.880;8.650;2023-04-15T09:35:17;13.00;;;12.20;;
63346;SDS011;49472;49.880;8.650;2023-04-15T09:37:43;13.03;;;11.77;;
63346;SDS011;49472;49.880;8.650;2023-04-15T09:40:09;11.63;;;10.83;;
63346;SDS011;49472;49.880;8.650;2023-04-15T09:42:35;11.90;;;11.20;;
63346;SDS011;49472;49.880;8.650;2023-04-15T09:45:10;11.70;;;11.00;;
63346;SDS011;49472;49.880;8.650;2023-04-15T09:47:36;12.57;;;11.60;;
63346;SDS011;49472;49.880;8.650;2023-04-15T09:50:01;12.90;;;11.80;;
63346;SDS011;49472;49.880;8.650;2023-04-15T09:52:27;11.90;;;11.20;;
63346;SDS011;49472;49.880;8.650;2023-04-15T09:54:53;12.30;;;11.40;;
63346;SDS011;49472;49.880;8.650;2023-04-15T09:57:22;12.30;;;11.33;;
63346;SDS011;49472;49.880;8.650;2023-04-15T09:59:48;12.37;;;11.37;;
63346;SDS011;49472;49.880;8.650;2023-04-15T10:02:14;11.57;;;10.87;;
63346;SDS011;49472;49.880;8.650;2023-04-15T10:04:42;12.40;;;11.53;;
63346;SDS011;49472;49.880;8.650;2023-04-15T10:07:09;12.17;;;11.17;;
63346;SDS011;49472;49.880;8.650;2023-04-15T10:09:36;12.20;;;11.40;;
63346;SDS011;49472;49.880;8.650;2023-04-15T10:12:03;12.30;;;11.50;;
63346;SDS011;49472;49.880;8.650;2023-04-15T10:14:31;12.40;;;11.33;;
63346;SDS011;49472;49.880;8.650;2023-04-15T10:16:58;12.60;;;11.63;;
63346;SDS011;49472;49.880;8.650;2023-04-15T10:19:26;12.40;;;11.60;;
63346;SDS011;49472;49.880;8.650;2023-04-15T10:21:55;11.40;;;10.60;;
63346;SDS011;49472;49.880;8.650;2023-04-15T10:24:21;11.90;;;11.10;;
63346;SDS011;49472;49.880;8.650;2023-04-15T10:26:48;12.30;;;11.50;;
63346;SDS011;49472;49.880;8.650;2023-04-15T10:29:15;12.33;;;11.43;;
63346;SDS011;49472;49.880;8.650;2023-04-15T10:31:41;13.10;;;12.20;;
63346;SDS011;49472;49.880;8.650;2023-04-15T10:34:07;12.30;;;11.50;;
63346;SDS011;49472;49.880;8.650;2023-04-15T10:36:33;12.60;;;11.80;;
63346;SDS011;49472;49.880;8.650;2023-04-15T10:38:58;11.93;;;11.03;;
63346;SDS011;49472;49.880;8.650;2023-04-15T10:41:24;13.23;;;12.43;;
63346;SDS011;49472;49.880;8.650;2023-04-15T10:44:02;12.13;;;11.23;;
63346;SDS011;49472;49.880;8.650;2023-04-15T10:49:14;11.83;;;11.03;;
63346;SDS011;49472;49.880;8.650;2023-04-15T10:51:45;11.33;;;10.63;;
63346;SDS011;49472;49.880;8.650;2023-04-15T10:56:50;11.97;;;11.17;;
63346;SDS011;49472;49.880;8.650;2023-04-15T10:59:16;12.63;;;11.73;;
63346;SDS011;49472;49.880;8.650;2023-04-15T11:12:41;11.93;;;11.07;;
63346;SDS011;49472;49.880;8.650;2023-04-15T11:20:31;12.30;;;11.60;;
63346;SDS011;49472;49.880;8.650;2023-04-15T11:22:56;14.03;;;13.03;;
63346;SDS011;49472;49.880;8.650;2023-04-15T11:25:25;11.87;;;11.17;;
63346;SDS011;49472;49.880;8.650;2023-04-15T11:27:53;13.00;;;11.87;;
63346;SDS011;49472;49.880;8.650;2023-04-15T11:30:21;12.40;;;11.30;;
63346;SDS011;49472;49.880;8.650;2023-04-15T11:32:48;12.30;;;11.60;;
63346;SDS011;49472;49.880;8.650;2023-04-15T11:35:15;12.57;;;11.57;;
63346;SDS011;49472;49.880;8.650;2023-04-15T11:37:42;12.60;;;11.60;;
63346;SDS011;49472;49.880;8.650;2023-04-15T11:40:11;12.30;;;11.40;;
63346;SDS011;49472;49.880;8.650;2023-04-15T11:42:37;12.30;;;11.60;;
63346;SDS011;49472;49.880;8.650;2023-04-15T11:47:38;11.57;;;10.93;;
63346;SDS011;49472;49.880;8.650;2023-04-15T11:50:20;12.20;;;11.40;;
63346;SDS011;49472;49.880;8.650;2023-04-15T11:55:23;12.07;;;11.07;;
63346;SDS011;49472;49.880;8.650;2023-04-15T11:58:34;11.87;;;11.07;;
63346;SDS011;49472;49.880;8.650;2023-04-15T12:00:38;12.07;;;11.00;;
63346;SDS011;49472;49.880;8.650;2023-04-15T12:06:14;13.27;;;12.20;;
63346;SDS011;49472;49.880;8.650;2023-04-15T12:11:17;11.53;;;10.73;;
63346;SDS011;49472;49.880;8.650;2023-04-15T12:13:46;12.40;;;11.30;;
63346;SDS011;49472;49.880;8.650;2023-04-15T12:16:17;11.50;;;10.60;;
63346;SDS011;49472;49.880;8.650;2023-04-15T12:18:46;10.63;;;9.90;;
63346;SDS011;49472;49.880;8.650;2023-04-15T12:21:17;10.80;;;10.10;;
63346;SDS011;49472;49.880;8.650;2023-04-15T12:23:50;12.60;;;11.30;;
63346;SDS011;49472;49.880;8.650;2023-04-15T12:26:30;18.50;;;13.40;;
63346;SDS011;49472;49.880;8.650;2023-04-15T12:31:31;12.00;;;11.10;;
63346;SDS011;49472;49.880;8.650;2023-04-15T12:33:57;12.83;;;11.73;;
63346;SDS011;49472;49.880;8.650;2023-04-15T12:36:23;13.63;;;12.23;;
63346;SDS011;49472;49.880;8.650;2023-04-15T12:38:49;12.77;;;11.50;;
63346;SDS011;49472;49.880;8.650;2023-04-15T12:41:14;12.70;;;11.90;;
63346;SDS011;49472;49.880;8.650;2023-04-15T12:43:40;13.30;;;12.00;;
63346;SDS011;49472;49.880;8.650;2023-04-15T12:46:06;12.17;;;11.47;;
63346;SDS011;49472;49.880;8.650;2023-04-15T12:48:32;14.10;;;12.90;;
63346;SDS011;49472;49.880;8.650;2023-04-15T12:50:58;14.53;;;12.57;;
63346;SDS011;49472;49.880;8.650;2023-04-15T12:53:24;14.00;;;12.77;;
63346;SDS011;49472;49.880;8.650;2023-04-15T12:55:50;13.83;;;12.77;;
63346;SDS011;49472;49.880;8.650;2023-04-15T12:58:15;13.77;;;12.73;;
63346;SDS011;49472;49.880;8.650;2023-04-15T13:00:41;13.60;;;12.70;;
63346;SDS011;49472;49.880;8.650;2023-04-15T13:03:06;14.53;;;13.43;;
63346;SDS011;49472;49.880;8.650;2023-04-15T13:05:32;14.13;;;13.00;;
63346;SDS011;49472;49.880;8.650;2023-04-15T13:07:57;13.57;;;12.57;;
63346;SDS011;49472;49.880;8.650;2023-04-15T13:10:22;14.17;;;13.17;;
63346;SDS011;49472;49.880;8.650;2023-04-15T13:12:48;15.60;;;14.30;;
63346;SDS011;49472;49.880;8.650;2023-04-15T13:15:16;14.30;;;13.30;;
63346;SDS011;49472;49.880;8.650;2023-04-15T13:17:44;13.07;;;12.27;;
63346;SDS011;49472;49.880;8.650;2023-04-15T13:20:10;13.37;;;12.50;;
63346;SDS011;49472;49.880;8.650;2023-04-15T13:22:35;13.13;;;12.33;;
63346;SDS011;49472;49.880;8.650;2023-04-15T13:25:01;21.97;;;13.13;;
63346;SDS011;49472;49.880;8.650;2023-04-15T13:27:26;13.63;;;12.73;;
63346;SDS011;49472;49.880;8.650;2023-04-15T13:29:51;13.47;;;12.37;;
63346;SDS011;49472;49.880;8.650;2023-04-15T13:32:17;13.43;;;12.23;;
63346;SDS011;49472;49.880;8.650;2023-04-15T13:34:44;13.07;;;12.27;;
63346;SDS011;49472;49.880;8.650;2023-04-15T13:37:09;13.30;;;12.50;;
63346;SDS011;49472;49.880;8.650;2023-04-15T13:39:34;12.80;;;11.80;;
63346;SDS011;49472;49.880;8.650;2023-04-15T13:42:00;13.70;;;12.70;;
63346;SDS011;49472;49.880;8.650;2023-04-15T13:44:26;20.73;;;15.20;;
63346;SDS011;49472;49.880;8.650;2023-04-15T13:46:52;13.10;;;12.20;;
63346;SDS011;49472;49.880;8.650;2023-04-15T13:49:17;12.77;;;11.87;;
63346;SDS011;49472;49.880;8.650;2023-04-15T13:51:42;12.67;;;11.87;;
63346;SDS011;49472;49.880;8.650;2023-04-15T13:54:07;11.50;;;10.80;;
63346;SDS011;49472;49.880;8.650;2023-04-15T13:56:33;13.90;;;11.37;;
63346;SDS011;49472;49.880;8.650;2023-04-15T13:58:58;12.80;;;11.90;;
63346;SDS011;49472;49.880;8.650;2023-04-15T14:01:26;14.80;;;13.23;;
63346;SDS011;49472;49.880;8.650;2023-04-15T14:03:51;12.20;;;11.40;;
63346;SDS011;49472;49.880;8.650;2023-04-15T14:06:17;11.97;;;11.17;;
63346;SDS011;49472;49.880;8.650;2023-04-15T14:08:42;12.10;;;11.40;;
63346;SDS011;49472;49.880;8.650;2023-04-15T14:11:07;14.67;;;12.77;;
63346;SDS011;49472;49.880;8.650;2023-04-15T14:13:33;14.30;;;12.73;;
63346;SDS011;49472;49.880;8.650;2023-04-15T14:15:58;12.77;;;11.97;;
63346;SDS011;49472;49.880;8.650;2023-04-15T14:18:24;11.60;;;10.90;;
63346;SDS011;49472;49.880;8.650;2023-04-15T14:20:49;10.90;;;10.40;;
63346;SDS011;49472;49.880;8.650;2023-04-15T14:23:14;11.40;;;10.90;;
63346;SDS011;49472;49.880;8.650;2023-04-15T14:25:40;12.10;;;11.40;;
63346;SDS011;49472;49.880;8.650;2023-04-15T14:28:05;12.73;;;11.93;;
63346;SDS011;49472;49.880;8.650;2023-04-15T14:30:31;11.70;;;11.10;;
63346;SDS011;49472;49.880;8.650;2023-04-15T14:32:56;11.70;;;11.00;;
63346;SDS011;49472;49.880;8.650;2023-04-15T14:35:21;12.47;;;11.77;;
63346;SDS011;49472;49.880;8.650;2023-04-15T14:37:49;11.80;;;11.20;;
63346;SDS011;49472;49.880;8.650;2023-04-15T14:40:14;12.10;;;11.50;;
63346;SDS011;49472;49.880;8.650;2023-04-15T14:42:40;12.10;;;11.40;;
63346;SDS011;49472;49.880;8.650;2023-04-15T14:45:05;12.93;;;12.23;;
63346;SDS011;49472;49.880;8.650;2023-04-15T14:47:31;13.70;;;12.60;;
63346;SDS011;49472;49.880;8.650;2023-04-15T14:49:56;13.10;;;12.30;;
63346;SDS011;49472;49.880;8.650;2023-04-15T14:52:21;12.60;;;12.00;;
63346;SDS011;49472;49.880;8.650;2023-04-15T14:54:47;11.90;;;11.10;;